Time;durP1;ratioP1;P1;durP2;ratioP2;P2;SDS_P1;SDS_P2;PMS_P1;PMS_P2;Temp;Humidity;BMP_temperature;BMP_pressure;BME280_temperature;BME280_humidity;BME280_pressure;Samples;Min_cycle;Max_cycle;Signal;HPM_P1;HPM_P2
2022/04/23 00:01:54;;;;;;;12.25;2.67;;;;;;;;;;5038435;28;20107;-68
2022/04/23 00:04:19;;;;;;;6.13;1.92;;;;;;;;;;5033830;28;20033;-68
2022/04/23 00:06:45;;;;;;;11.43;3.42;;;;;;;;;;5034462;28;20056;-68
2022/04/23 00:09:10;;;;;;;10.52;3.53;;;;;;;;;;5034204;28;20045;-68
2022/04/23 00:11:35;;;;;;;7.90;3.13;;;;;;;;;;5036754;28;20040;-68
2022/04/23 00:14:04;;;;;;;7.85;3.15;;;;;;;;;;5034216;28;20393;-68
2022/04/23 00:16:30;;;;;;;7.90;2.83;;;;;;;;;;5035278;28;20080;-68
2022/04/23 00:18:55;;;;;;;8.48;3.28;;;;;;;;;;5033875;28;20121;-68
2022/04/23 00:21:21;;;;;;;7.40;3.50;;;;;;;;;;5027414;28;20025;-68
2022/04/23 00:23:48;;;;;;;7.57;3.75;;;;;;;;;;5032688;28;20069;-68
2022/04/23 00:26:14;;;;;;;8.63;3.72;;;;;;;;;;5033184;28;20091;-68
2022/04/23 00:28:39;;;;;;;9.60;4.15;;;;;;;;;;5033240;28;20451;-68
2022/04/23 00:31:05;;;;;;;10.88;4.20;;;;;;;;;;5032873;28;20113;-68
2022/04/23 00:33:32;;;;;;;10.68;3.92;;;;;;;;;;5033983;28;20049;-68
2022/04/23 00:35:57;;;;;;;8.20;3.63;;;;;;;;;;5035219;28;20100;-68
2022/04/23 00:38:24;;;;;;;10.30;4.00;;;;;;;;;;5034325;28;20121;-68
2022/04/23 00:40:50;;;;;;;11.82;4.43;;;;;;;;;;5033362;28;20049;-68
2022/04/23 00:43:47;;;;;;;9.02;4.78;;;;;;;;;;5034230;28;20095;-68
2022/04/23 00:46:12;;;;;;;12.98;4.38;;;;;;;;;;5042481;28;20443;-68
2022/04/23 00:48:38;;;;;;;7.88;3.47;;;;;;;;;;5033631;28;20092;-68
2022/04/23 00:51:03;;;;;;;10.57;4.70;;;;;;;;;;5043908;28;20056;-68
2022/04/23 00:53:29;;;;;;;6.88;3.90;;;;;;;;;;5037946;28;20045;-68
2022/04/23 00:55:54;;;;;;;14.07;5.00;;;;;;;;;;5032139;28;20034;-68
2022/04/23 00:58:20;;;;;;;13.15;4.45;;;;;;;;;;5036369;28;20044;-68
2022/04/23 01:00:47;;;;;;;8.48;4.10;;;;;;;;;;5037777;28;20469;-68
2022/04/23 01:03:13;;;;;;;11.98;4.90;;;;;;;;;;5038432;28;20405;-68
2022/04/23 01:05:45;;;;;;;11.93;5.20;;;;;;;;;;5036676;28;20040;-68
2022/04/23 01:08:14;;;;;;;14.85;4.90;;;;;;;;;;5053933;28;20044;-68
2022/04/23 01:10:41;;;;;;;14.48;4.53;;;;;;;;;;5039746;28;20480;-68
2022/04/23 01:13:07;;;;;;;12.43;5.38;;;;;;;;;;5037086;28;20069;-68
2022/04/23 01:15:33;;;;;;;10.43;5.00;;;;;;;;;;5037407;28;20511;-68
2022/04/23 01:17:59;;;;;;;13.60;5.32;;;;;;;;;;5037218;28;20025;-68
2022/04/23 01:20:24;;;;;;;14.75;5.28;;;;;;;;;;5036613;28;20045;-68
2022/04/23 01:22:50;;;;;;;10.98;5.13;;;;;;;;;;5037530;28;20044;-68
2022/04/23 01:25:15;;;;;;;12.02;4.75;;;;;;;;;;5043027;28;20468;-68
2022/04/23 01:27:42;;;;;;;15.30;6.15;;;;;;;;;;5032304;28;20052;-69
2022/04/23 01:30:12;;;;;;;16.92;6.03;;;;;;;;;;5036922;28;20039;-68
2022/04/23 01:32:37;;;;;;;15.05;5.60;;;;;;;;;;5038163;28;20065;-68
2022/04/23 01:35:04;;;;;;;13.55;5.75;;;;;;;;;;5035924;28;20527;-68
2022/04/23 01:37:29;;;;;;;15.73;5.57;;;;;;;;;;5039501;28;20123;-68
2022/04/23 01:39:55;;;;;;;15.48;5.65;;;;;;;;;;5036762;28;20469;-68
2022/04/23 01:42:20;;;;;;;10.68;5.57;;;;;;;;;;5036586;28;20492;-68
2022/04/23 01:44:46;;;;;;;11.68;5.65;;;;;;;;;;5036744;28;20087;-68
2022/04/23 01:47:12;;;;;;;16.88;5.82;;;;;;;;;;5037158;28;20026;-68
2022/04/23 01:49:38;;;;;;;14.15;6.10;;;;;;;;;;5036494;28;20095;-68
2022/04/23 01:52:03;;;;;;;12.15;4.97;;;;;;;;;;5036655;28;20037;-68
2022/04/23 01:54:29;;;;;;;17.73;6.47;;;;;;;;;;5036681;28;20028;-68
2022/04/23 01:56:57;;;;;;;11.02;4.60;;;;;;;;;;5035469;28;20447;-68
2022/04/23 01:59:23;;;;;;;12.63;4.40;;;;;;;;;;5036243;28;20033;-68
2022/04/23 02:01:49;;;;;;;11.38;4.97;;;;;;;;;;5035718;28;20108;-68
2022/04/23 02:04:14;;;;;;;18.80;5.85;;;;;;;;;;5036188;28;20041;-68
2022/04/23 02:06:40;;;;;;;12.82;5.82;;;;;;;;;;5037362;28;20503;-68
2022/04/23 02:09:05;;;;;;;16.02;5.68;;;;;;;;;;5035597;28;20070;-68
2022/04/23 02:11:31;;;;;;;12.52;5.68;;;;;;;;;;5047045;28;20033;-68
2022/04/23 02:13:57;;;;;;;14.60;6.07;;;;;;;;;;5035083;28;20484;-68
2022/04/23 02:16:22;;;;;;;24.00;7.43;;;;;;;;;;5038989;28;20017;-68
2022/04/23 02:18:47;;;;;;;12.25;6.00;;;;;;;;;;5036134;28;20484;-68
2022/04/23 02:21:13;;;;;;;23.15;6.72;;;;;;;;;;5039291;28;20041;-68
2022/04/23 02:23:39;;;;;;;15.40;5.70;;;;;;;;;;5037225;28;20026;-68
2022/04/23 02:26:05;;;;;;;10.32;4.82;;;;;;;;;;5036814;28;20045;-68
2022/04/23 02:28:31;;;;;;;16.45;6.50;;;;;;;;;;5039476;28;20040;-68
2022/04/23 02:30:56;;;;;;;18.35;6.95;;;;;;;;;;5042796;28;20032;-68
2022/04/23 02:33:22;;;;;;;13.45;7.00;;;;;;;;;;5044055;28;20033;-68
2022/04/23 02:35:47;;;;;;;12.60;6.13;;;;;;;;;;5034861;28;20065;-68
2022/04/23 02:38:17;;;;;;;11.38;4.30;;;;;;;;;;5035847;28;20025;-68
2022/04/23 02:40:43;;;;;;;15.80;6.50;;;;;;;;;;5039382;28;20131;-68
2022/04/23 02:43:09;;;;;;;19.90;5.97;;;;;;;;;;5034459;28;20493;-68
2022/04/23 02:45:37;;;;;;;11.07;4.03;;;;;;;;;;5033449;28;20037;-68
2022/04/23 02:48:02;;;;;;;20.98;7.68;;;;;;;;;;5037827;28;20499;-68
2022/04/23 02:50:38;;;;;;;26.98;7.88;;;;;;;;;;5034491;28;20060;-68
2022/04/23 02:53:05;;;;;;;17.65;7.47;;;;;;;;;;5037972;28;20434;-68
2022/04/23 02:55:32;;;;;;;17.50;6.55;;;;;;;;;;5034595;28;20435;-68
2022/04/23 02:58:02;;;;;;;27.75;7.85;;;;;;;;;;5035468;28;20052;-68
2022/04/23 03:00:27;;;;;;;19.48;7.65;;;;;;;;;;5041367;28;20053;-68
2022/04/23 03:02:53;;;;;;;21.33;7.50;;;;;;;;;;5037201;28;20040;-68
2022/04/23 03:05:18;;;;;;;14.50;6.93;;;;;;;;;;5034308;28;20025;-68
2022/04/23 03:07:45;;;;;;;20.33;7.10;;;;;;;;;;5035398;28;20041;-68
2022/04/23 03:10:12;;;;;;;19.33;7.90;;;;;;;;;;5037883;28;20033;-68
2022/04/23 03:12:38;;;;;;;15.95;8.15;;;;;;;;;;5035268;28;20037;-68
2022/04/23 03:15:08;;;;;;;26.35;8.02;;;;;;;;;;5034580;28;20071;-68
2022/04/23 03:17:34;;;;;;;21.73;8.10;;;;;;;;;;5056614;28;20029;-68
2022/04/23 03:20:01;;;;;;;17.73;8.77;;;;;;;;;;5038226;28;20090;-68
2022/04/23 03:22:26;;;;;;;18.75;7.85;;;;;;;;;;5039106;28;20091;-68
2022/04/23 03:24:52;;;;;;;19.33;7.72;;;;;;;;;;5024510;28;20381;-68
2022/04/23 03:27:17;;;;;;;21.75;8.50;;;;;;;;;;5033453;28;20531;-68
2022/04/23 03:29:44;;;;;;;18.58;8.88;;;;;;;;;;5034971;28;20063;-68
2022/04/23 03:32:10;;;;;;;25.80;8.73;;;;;;;;;;5035772;28;20492;-68
2022/04/23 03:34:36;;;;;;;20.83;7.43;;;;;;;;;;5034610;28;20032;-68
2022/04/23 03:37:01;;;;;;;17.33;7.70;;;;;;;;;;5034938;28;20048;-69
2022/04/23 03:39:27;;;;;;;20.02;8.60;;;;;;;;;;5034984;28;20593;-68
2022/04/23 03:41:52;;;;;;;18.67;7.85;;;;;;;;;;5041276;28;20029;-68
2022/04/23 03:44:18;;;;;;;13.30;7.10;;;;;;;;;;5035318;28;20480;-68
2022/04/23 03:46:43;;;;;;;18.33;8.65;;;;;;;;;;5036130;28;20033;-67
2022/04/23 03:49:08;;;;;;;18.00;8.32;;;;;;;;;;5033627;28;20115;-68
2022/04/23 03:51:34;;;;;;;20.25;5.63;;;;;;;;;;5036022;28;20025;-68
2022/04/23 03:54:01;;;;;;;17.80;7.20;;;;;;;;;;5033570;28;20483;-68
2022/04/23 03:56:26;;;;;;;17.92;8.38;;;;;;;;;;5035880;28;20392;-68
2022/04/23 03:58:52;;;;;;;22.88;8.70;;;;;;;;;;5039278;28;20120;-68
2022/04/23 04:01:17;;;;;;;26.15;10.25;;;;;;;;;;5035240;28;20124;-68
2022/04/23 04:03:43;;;;;;;26.13;8.77;;;;;;;;;;5050715;28;20464;-68
2022/04/23 04:06:09;;;;;;;27.25;8.82;;;;;;;;;;5037007;28;20037;-68
2022/04/23 04:08:35;;;;;;;19.00;8.93;;;;;;;;;;5034377;28;20103;-68
2022/04/23 04:11:00;;;;;;;33.38;10.13;;;;;;;;;;5040006;28;20104;-68
2022/04/23 04:13:25;;;;;;;16.30;7.45;;;;;;;;;;5034947;28;20043;-68
2022/04/23 04:15:51;;;;;;;22.73;9.00;;;;;;;;;;5033382;28;20060;-68
2022/04/23 04:18:16;;;;;;;15.88;7.18;;;;;;;;;;5034154;28;20109;-68
2022/04/23 04:20:44;;;;;;;23.77;8.77;;;;;;;;;;5039955;28;20046;-68
2022/04/23 04:23:09;;;;;;;23.25;8.90;;;;;;;;;;5034308;28;20034;-68
2022/04/23 04:25:35;;;;;;;16.08;7.70;;;;;;;;;;5033839;28;20465;-68
2022/04/23 04:28:01;;;;;;;21.50;9.43;;;;;;;;;;5034123;28;20116;-68
2022/04/23 04:30:27;;;;;;;25.40;9.43;;;;;;;;;;5035362;28;20029;-68
2022/04/23 04:32:52;;;;;;;16.52;8.70;;;;;;;;;;5035194;28;20392;-68
2022/04/23 04:35:18;;;;;;;25.77;9.27;;;;;;;;;;5032946;28;20045;-68
2022/04/23 04:37:44;;;;;;;23.08;9.80;;;;;;;;;;5039619;28;20037;-68
2022/04/23 04:40:11;;;;;;;23.45;9.57;;;;;;;;;;5034952;28;20040;-68
2022/04/23 04:42:36;;;;;;;25.15;9.55;;;;;;;;;;5033492;28;20378;-68
2022/04/23 04:45:03;;;;;;;16.08;7.78;;;;;;;;;;5040743;28;20171;-68
2022/04/23 04:47:28;;;;;;;22.27;9.50;;;;;;;;;;5035470;28;20040;-68
2022/04/23 04:49:54;;;;;;;22.10;8.25;;;;;;;;;;5032767;28;20112;-68
2022/04/23 04:52:19;;;;;;;22.83;9.90;;;;;;;;;;5034774;28;20591;-68
2022/04/23 04:54:45;;;;;;;30.88;10.43;;;;;;;;;;5033802;28;20083;-68
2022/04/23 04:57:10;;;;;;;26.92;9.70;;;;;;;;;;5037910;28;20414;-68
2022/04/23 04:59:36;;;;;;;24.50;7.20;;;;;;;;;;5033559;28;20042;-68
2022/04/23 05:02:02;;;;;;;30.75;10.15;;;;;;;;;;5033856;28;20026;-68
2022/04/23 05:04:27;;;;;;;23.05;10.85;;;;;;;;;;5033687;28;20060;-68
2022/04/23 05:06:53;;;;;;;20.40;10.02;;;;;;;;;;5033334;28;20079;-68
2022/04/23 05:09:18;;;;;;;22.38;10.23;;;;;;;;;;5033609;28;20037;-68
2022/04/23 05:11:44;;;;;;;31.48;11.40;;;;;;;;;;5034691;28;20061;-68
2022/04/23 05:14:09;;;;;;;27.02;11.63;;;;;;;;;;5033019;28;20048;-68
2022/04/23 05:16:34;;;;;;;25.48;10.23;;;;;;;;;;5035671;28;20487;-68
2022/04/23 05:19:00;;;;;;;20.55;9.35;;;;;;;;;;5040131;28;20045;-68
2022/04/23 05:21:25;;;;;;;23.38;10.45;;;;;;;;;;5031940;28;20036;-68
2022/04/23 05:23:51;;;;;;;26.75;11.13;;;;;;;;;;5033777;28;20479;-68
2022/04/23 05:26:16;;;;;;;27.02;9.38;;;;;;;;;;5033987;28;20029;-68
2022/04/23 05:28:42;;;;;;;25.85;10.00;;;;;;;;;;5042340;28;20041;-68
2022/04/23 05:31:08;;;;;;;23.02;8.98;;;;;;;;;;5033481;28;20377;-68
2022/04/23 05:33:35;;;;;;;28.35;10.02;;;;;;;;;;5038723;28;20374;-68
2022/04/23 05:36:01;;;;;;;22.13;9.02;;;;;;;;;;5035063;28;20056;-68
2022/04/23 05:38:26;;;;;;;26.67;10.15;;;;;;;;;;5042327;28;20061;-68
2022/04/23 05:40:52;;;;;;;17.58;7.60;;;;;;;;;;5036105;28;20060;-68
2022/04/23 05:43:17;;;;;;;19.25;9.00;;;;;;;;;;5038080;28;20038;-68
2022/04/23 05:45:46;;;;;;;27.40;9.45;;;;;;;;;;5036609;28;20040;-68
2022/04/23 05:48:11;;;;;;;24.73;10.05;;;;;;;;;;5039816;28;20440;-68
2022/04/23 05:50:37;;;;;;;24.83;8.95;;;;;;;;;;5050453;28;20044;-68
2022/04/23 05:53:02;;;;;;;18.40;7.70;;;;;;;;;;5037103;28;20036;-68
2022/04/23 05:55:28;;;;;;;26.67;9.43;;;;;;;;;;5037544;28;20038;-68
2022/04/23 05:57:53;;;;;;;19.90;7.22;;;;;;;;;;5037672;28;20037;-68
2022/04/23 06:00:19;;;;;;;23.60;8.98;;;;;;;;;;5039095;28;20055;-68
2022/04/23 06:02:44;;;;;;;25.73;9.80;;;;;;;;;;5050945;28;20048;-68
2022/04/23 06:05:10;;;;;;;20.08;8.32;;;;;;;;;;5035490;28;20041;-68
2022/04/23 06:07:36;;;;;;;21.08;9.15;;;;;;;;;;5036426;28;20025;-68
2022/04/23 06:10:02;;;;;;;21.42;8.38;;;;;;;;;;5038045;28;20041;-68
2022/04/23 06:12:28;;;;;;;19.92;9.25;;;;;;;;;;5037048;28;20190;-68
2022/04/23 06:14:53;;;;;;;26.00;8.45;;;;;;;;;;5035542;28;20116;-68
2022/04/23 06:17:26;;;;;;;26.52;9.20;;;;;;;;;;5040970;28;20120;-68
2022/04/23 06:19:52;;;;;;;24.33;9.35;;;;;;;;;;5035063;28;20496;-68
2022/04/23 06:22:18;;;;;;;22.70;9.13;;;;;;;;;;5035871;28;20469;-68
2022/04/23 06:24:44;;;;;;;26.80;7.90;;;;;;;;;;5035509;28;20045;-68
2022/04/23 06:27:09;;;;;;;29.17;8.77;;;;;;;;;;5045509;28;20041;-68
2022/04/23 06:29:36;;;;;;;20.77;8.38;;;;;;;;;;5035208;28;20036;-69
2022/04/23 06:32:02;;;;;;;32.53;8.65;;;;;;;;;;5034519;28;20044;-68
2022/04/23 06:34:28;;;;;;;26.20;8.38;;;;;;;;;;5035136;28;20044;-68
2022/04/23 06:36:53;;;;;;;18.05;7.75;;;;;;;;;;5034550;28;20030;-68
2022/04/23 06:39:19;;;;;;;23.50;7.55;;;;;;;;;;5034776;28;20035;-68
2022/04/23 06:41:44;;;;;;;17.70;6.95;;;;;;;;;;5034797;28;20507;-68
2022/04/23 06:44:10;;;;;;;30.75;8.15;;;;;;;;;;5033914;28;20440;-68
2022/04/23 06:46:35;;;;;;;24.55;7.85;;;;;;;;;;5034780;28;20040;-68
2022/04/23 06:49:05;;;;;;;13.52;6.40;;;;;;;;;;5034432;28;20096;-68
2022/04/23 06:51:33;;;;;;;17.75;7.65;;;;;;;;;;5034542;28;20034;-68
2022/04/23 06:53:59;;;;;;;17.63;8.05;;;;;;;;;;5034738;28;20083;-68
2022/04/23 06:56:25;;;;;;;19.65;7.70;;;;;;;;;;5034762;28;20503;-68
2022/04/23 06:58:51;;;;;;;27.00;9.35;;;;;;;;;;5034391;28;20505;-68
2022/04/23 07:01:17;;;;;;;17.38;7.07;;;;;;;;;;5034408;28;20041;-69
2022/04/23 07:03:42;;;;;;;22.58;7.32;;;;;;;;;;5036379;28;20032;-68
2022/04/23 07:06:08;;;;;;;24.40;7.35;;;;;;;;;;5043639;28;20032;-68
2022/04/23 07:08:33;;;;;;;21.90;7.75;;;;;;;;;;5036903;28;20119;-68
2022/04/23 07:10:59;;;;;;;17.75;7.00;;;;;;;;;;5038219;28;20129;-69
2022/04/23 07:13:25;;;;;;;12.27;5.00;;;;;;;;;;5049321;28;20041;-68
2022/04/23 07:15:50;;;;;;;24.65;7.93;;;;;;;;;;5032775;28;20481;-68
2022/04/23 07:18:16;;;;;;;14.82;4.78;;;;;;;;;;5049601;28;20042;-68
2022/04/23 07:20:41;;;;;;;19.85;7.60;;;;;;;;;;5034282;28;20040;-68
2022/04/23 07:25:52;;;;;;;13.25;5.60;;;;;;;;;;5033758;28;20511;-68
2022/04/23 07:28:20;;;;;;;27.38;7.57;;;;;;;;;;5034049;28;20037;-68
2022/04/23 07:30:46;;;;;;;31.45;7.65;;;;;;;;;;5033913;28;20397;-69
2022/04/23 07:37:28;;;;;;;14.88;5.68;;;;;;;;;;5033730;28;20037;-68
2022/04/23 07:38:40;;;;;;;19.30;7.32;;;;;;;;;;5032444;28;20510;-68
2022/04/23 07:41:06;;;;;;;28.20;7.75;;;;;;;;;;5033508;28;20042;-68
2022/04/23 07:43:31;;;;;;;15.98;7.35;;;;;;;;;;5039444;28;20045;-69
2022/04/23 07:45:56;;;;;;;27.17;8.02;;;;;;;;;;5042963;28;20036;-68
2022/04/23 07:48:22;;;;;;;16.90;7.53;;;;;;;;;;5032265;28;20037;-68
2022/04/23 07:50:47;;;;;;;19.60;6.80;;;;;;;;;;5033333;28;20558;-68
2022/04/23 07:53:13;;;;;;;22.60;7.95;;;;;;;;;;5032963;28;20036;-68
2022/04/23 07:55:40;;;;;;;12.95;5.47;;;;;;;;;;5033527;28;20045;-68
2022/04/23 07:58:06;;;;;;;20.55;6.55;;;;;;;;;;5033487;28;20048;-68
2022/04/23 08:00:35;;;;;;;22.73;8.02;;;;;;;;;;5032649;28;20084;-68
2022/04/23 08:03:03;;;;;;;25.38;6.28;;;;;;;;;;5033528;28;20158;-68
2022/04/23 08:05:31;;;;;;;12.80;5.25;;;;;;;;;;5033355;28;20125;-68
2022/04/23 08:07:57;;;;;;;20.48;6.63;;;;;;;;;;5033388;28;20078;-68
2022/04/23 08:10:23;;;;;;;12.88;6.13;;;;;;;;;;5033060;28;20037;-68
2022/04/23 08:12:48;;;;;;;20.75;6.07;;;;;;;;;;5033223;28;20037;-68
2022/04/23 08:15:14;;;;;;;17.58;5.65;;;;;;;;;;5032866;28;20158;-68
2022/04/23 08:17:40;;;;;;;16.45;5.78;;;;;;;;;;5033356;28;20048;-68
2022/04/23 08:20:06;;;;;;;16.35;5.13;;;;;;;;;;5033174;28;20033;-68
2022/04/23 08:22:32;;;;;;;18.65;6.07;;;;;;;;;;5033257;28;20063;-68
2022/04/23 08:24:57;;;;;;;17.15;5.70;;;;;;;;;;5034346;28;20106;-69
2022/04/23 08:27:23;;;;;;;20.98;6.07;;;;;;;;;;5034774;28;20504;-68
2022/04/23 08:32:34;;;;;;;17.60;6.18;;;;;;;;;;5035528;28;20409;-68
2022/04/23 08:34:59;;;;;;;24.60;6.80;;;;;;;;;;5036665;28;20045;-68
2022/04/23 08:37:25;;;;;;;18.73;5.65;;;;;;;;;;5035417;28;20048;-68
2022/04/23 08:39:51;;;;;;;15.23;5.75;;;;;;;;;;5041726;28;20479;-68
2022/04/23 08:42:17;;;;;;;17.90;5.78;;;;;;;;;;5032988;28;20045;-68
2022/04/23 08:44:43;;;;;;;20.15;5.45;;;;;;;;;;5036319;28;20128;-69
2022/04/23 08:47:10;;;;;;;12.60;5.00;;;;;;;;;;5035991;28;20029;-68
2022/04/23 08:49:40;;;;;;;16.10;5.38;;;;;;;;;;5038487;28;20037;-69
2022/04/23 08:52:43;;;;;;;16.80;5.32;;;;;;;;;;5035855;28;20044;-68
2022/04/23 08:55:11;;;;;;;13.30;5.37;;;;;;;;;;5056151;28;20549;-68
2022/04/23 08:57:37;;;;;;;14.60;5.70;;;;;;;;;;5054700;28;20290;-68
2022/04/23 09:00:08;;;;;;;16.15;5.13;;;;;;;;;;5031666;28;20049;-69
2022/04/23 09:02:35;;;;;;;12.38;5.43;;;;;;;;;;5039222;28;20041;-68
2022/04/23 09:05:00;;;;;;;11.23;4.13;;;;;;;;;;5036616;28;20085;-69
2022/04/23 09:07:28;;;;;;;20.58;6.00;;;;;;;;;;5039556;28;20472;-69
2022/04/23 09:09:54;;;;;;;19.63;5.68;;;;;;;;;;5040327;28;20033;-68
2022/04/23 09:12:24;;;;;;;15.75;5.10;;;;;;;;;;5038172;28;20049;-69
2022/04/23 09:14:51;;;;;;;19.13;6.10;;;;;;;;;;5044120;28;20041;-68
2022/04/23 09:25:44;;;;;;;13.20;5.15;;;;;;;;;;5033790;28;20053;-66
2022/04/23 09:28:17;;;;;;;15.90;5.95;;;;;;;;;;5036823;28;20037;-66
2022/04/23 09:30:43;;;;;;;;;;;;;;;;;;5036914;28;20041;-67
2022/04/23 09:33:08;;;;;;;24.50;6.75;;;;;;;;;;5038031;28;19917;-66
2022/04/23 09:35:34;;;;;;;14.73;5.75;;;;;;;;;;5054355;28;20405;-66
2022/04/23 09:38:18;;;;;;;17.63;6.18;;;;;;;;;;5046936;28;20047;-67
2022/04/23 09:40:44;;;;;;;;;;;;;;;;;;5036822;28;20041;-66
2022/04/23 09:43:10;;;;;;;21.77;6.53;;;;;;;;;;5053361;28;20004;-67
2022/04/23 09:45:41;;;;;;;15.52;6.65;;;;;;;;;;5039335;28;20109;-69
2022/04/23 09:48:12;;;;;;;14.02;6.32;;;;;;;;;;5034697;28;20116;-69
2022/04/23 09:50:39;;;;;;;14.70;6.55;;;;;;;;;;5037741;28;20045;-66
2022/04/23 09:53:08;;;;;;;15.98;7.35;;;;;;;;;;5035208;28;20048;-66
2022/04/23 09:55:34;;;;;;;16.23;6.05;;;;;;;;;;5044659;28;20033;-66
2022/04/23 09:58:00;;;;;;;17.25;6.45;;;;;;;;;;5035291;28;20128;-66
2022/04/23 10:00:26;;;;;;;12.40;5.78;;;;;;;;;;5049435;28;20138;-69
2022/04/23 10:02:55;;;;;;;20.85;6.68;;;;;;;;;;5034418;28;20481;-69
2022/04/23 10:05:21;;;;;;;19.02;6.78;;;;;;;;;;5038578;28;20052;-69
2022/04/23 10:07:47;;;;;;;14.05;6.53;;;;;;;;;;5034214;28;20029;-69
2022/04/23 10:10:13;;;;;;;17.58;7.45;;;;;;;;;;5035424;28;20033;-69
2022/04/23 10:12:40;;;;;;;15.65;6.00;;;;;;;;;;5037339;28;20083;-69
2022/04/23 10:15:06;;;;;;;11.98;5.40;;;;;;;;;;5033839;28;20576;-69
2022/04/23 10:17:31;;;;;;;15.30;7.00;;;;;;;;;;5038159;28;20037;-68
2022/04/23 10:19:58;;;;;;;15.45;7.50;;;;;;;;;;5039217;28;20040;-69
2022/04/23 10:22:31;;;;;;;14.88;6.25;;;;;;;;;;5049867;28;20038;-69
2022/04/23 10:25:08;;;;;;;21.92;7.97;;;;;;;;;;5043149;28;20040;-69
2022/04/23 10:27:34;;;;;;;17.05;7.18;;;;;;;;;;5035844;28;20041;-68
2022/04/23 10:30:02;;;;;;;17.15;7.93;;;;;;;;;;5035350;28;20091;-69
2022/04/23 10:32:39;;;;;;;13.93;6.63;;;;;;;;;;5049319;28;20112;-69
2022/04/23 10:35:16;;;;;;;23.60;8.88;;;;;;;;;;5035167;28;20117;-69
2022/04/23 10:37:42;;;;;;;18.33;8.73;;;;;;;;;;5036917;28;20487;-68
2022/04/23 10:40:10;;;;;;;11.10;5.75;;;;;;;;;;5039811;28;20033;-69
2022/04/23 10:42:38;;;;;;;12.68;6.68;;;;;;;;;;5035096;28;20504;-69
2022/04/23 10:45:05;;;;;;;20.88;7.20;;;;;;;;;;5049900;28;20063;-68
2022/04/23 10:47:34;;;;;;;21.48;8.55;;;;;;;;;;5038993;28;20065;-68
2022/04/23 10:50:13;;;;;;;16.35;7.70;;;;;;;;;;5036219;28;20409;-69
2022/04/23 10:52:38;;;;;;;12.57;6.72;;;;;;;;;;5034862;28;20084;-68
2022/04/23 10:55:04;;;;;;;18.75;7.18;;;;;;;;;;5035898;28;20599;-68
2022/04/23 10:57:29;;;;;;;14.48;6.40;;;;;;;;;;5034676;28;20508;-69
2022/04/23 10:59:55;;;;;;;16.27;7.10;;;;;;;;;;5037253;28;20476;-68
2022/04/23 11:02:21;;;;;;;20.90;8.98;;;;;;;;;;5041655;28;20041;-69
2022/04/23 11:13:49;;;;;;;17.65;7.72;;;;;;;;;;5034782;28;20052;-69
2022/04/23 11:16:16;;;;;;;17.27;7.20;;;;;;;;;;5034741;28;20038;-69
2022/04/23 11:18:42;;;;;;;17.90;7.60;;;;;;;;;;5034504;28;20041;-68
2022/04/23 11:21:21;;;;;;;14.75;7.18;;;;;;;;;;5035223;28;20041;-68
2022/04/23 11:23:47;;;;;;;16.83;7.88;;;;;;;;;;5034019;28;20073;-69
2022/04/23 11:26:18;;;;;;;20.65;7.93;;;;;;;;;;5034410;28;20091;-69
2022/04/23 11:28:44;;;;;;;17.05;8.23;;;;;;;;;;5034740;28;20393;-69
2022/04/23 11:31:15;;;;;;;19.35;8.15;;;;;;;;;;5037337;28;20045;-69
2022/04/23 11:33:56;;;;;;;13.55;7.43;;;;;;;;;;5041870;28;20045;-68
2022/04/23 11:36:26;;;;;;;14.73;7.07;;;;;;;;;;5035449;28;20064;-69
2022/04/23 11:38:53;;;;;;;15.25;8.10;;;;;;;;;;5036725;28;20033;-68
2022/04/23 11:41:36;;;;;;;18.45;8.23;;;;;;;;;;5034713;28;20358;-69
2022/04/23 11:45:05;;;;;;;14.02;7.97;;;;;;;;;;5034465;28;20052;-69
2022/04/23 11:47:16;;;;;;;19.23;8.35;;;;;;;;;;5043862;28;20706;-69
2022/04/23 11:49:42;;;;;;;13.93;7.28;;;;;;;;;;5030964;28;20037;-69
2022/04/23 11:52:12;;;;;;;20.63;8.15;;;;;;;;;;5035401;28;20374;-68
2022/04/23 11:54:45;;;;;;;18.40;7.50;;;;;;;;;;5035725;28;20041;-68
2022/04/23 11:57:20;;;;;;;24.30;8.03;;;;;;;;;;5034463;28;20488;-68
2022/04/23 11:59:47;;;;;;;15.18;7.35;;;;;;;;;;5038230;28;20771;-68
2022/04/23 12:02:16;;;;;;;16.15;7.38;;;;;;;;;;5038264;28;20468;-68
2022/04/23 12:04:43;;;;;;;16.88;8.15;;;;;;;;;;5033900;28;20048;-69
2022/04/23 12:07:10;;;;;;;14.50;7.78;;;;;;;;;;5033426;28;20049;-69
2022/04/23 12:09:52;;;;;;;15.82;7.32;;;;;;;;;;5033279;28;20060;-69
2022/04/23 12:12:38;;;;;;;18.58;8.30;;;;;;;;;;5038977;28;20040;-68
2022/04/23 12:15:06;;;;;;;15.77;8.02;;;;;;;;;;5028094;28;20053;-69
2022/04/23 12:17:46;;;;;;;12.90;7.32;;;;;;;;;;5055254;28;20073;-69
2022/04/23 12:20:13;;;;;;;14.38;7.35;;;;;;;;;;5030288;28;20033;-68
2022/04/23 12:22:39;;;;;;;15.45;8.18;;;;;;;;;;5033281;28;20029;-68
2022/04/23 12:25:09;;;;;;;12.23;5.72;;;;;;;;;;5032243;28;20381;-68
2022/04/23 12:27:59;;;;;;;15.50;7.47;;;;;;;;;;5032133;28;20516;-68
2022/04/23 12:42:07;;;;;;;17.75;7.30;;;;;;;;;;5031937;28;20094;-68
2022/04/23 12:44:35;;;;;;;16.13;8.25;;;;;;;;;;5032571;28;20042;-68
2022/04/23 12:47:05;;;;;;;14.05;7.95;;;;;;;;;;5033680;28;20041;-68
2022/04/23 12:50:03;;;;;;;16.67;8.48;;;;;;;;;;5036610;28;20040;-69
2022/04/23 12:52:38;;;;;;;13.82;7.93;;;;;;;;;;5034380;28;20045;-69
2022/04/23 12:55:28;;;;;;;17.00;7.97;;;;;;;;;;5028963;28;20037;-69
2022/04/23 12:57:54;;;;;;;13.27;7.28;;;;;;;;;;5036237;28;20189;-68
2022/04/23 13:00:21;;;;;;;12.48;8.00;;;;;;;;;;5036450;28;20037;-69
2022/04/23 13:02:50;;;;;;;15.63;7.75;;;;;;;;;;5037176;28;20045;-68
2022/04/23 13:05:16;;;;;;;19.15;8.40;;;;;;;;;;5036530;28;20041;-69
2022/04/23 13:10:26;;;;;;;13.13;6.07;;;;;;;;;;5043247;28;20094;-68
2022/04/23 13:12:52;;;;;;;12.63;7.32;;;;;;;;;;5037602;28;20041;-68
2022/04/23 13:15:18;;;;;;;13.50;8.70;;;;;;;;;;5037216;28;20413;-68
2022/04/23 13:17:44;;;;;;;15.70;8.95;;;;;;;;;;5036968;28;20036;-68
2022/04/23 13:20:10;;;;;;;14.85;7.32;;;;;;;;;;5038185;28;20064;-68
2022/04/23 13:22:36;;;;;;;16.70;8.00;;;;;;;;;;5038783;28;20041;-68
2022/04/23 13:25:03;;;;;;;15.70;7.53;;;;;;;;;;5039768;28;20033;-68
2022/04/23 13:27:29;;;;;;;15.95;8.60;;;;;;;;;;5037407;28;20083;-69
2022/04/23 13:29:57;;;;;;;15.23;7.88;;;;;;;;;;5036285;28;20033;-69
2022/04/23 13:32:23;;;;;;;11.10;7.07;;;;;;;;;;5036460;28;20038;-69
2022/04/23 13:34:48;;;;;;;16.02;8.00;;;;;;;;;;5054314;28;20049;-68
2022/04/23 13:37:14;;;;;;;20.73;7.78;;;;;;;;;;5034724;28;20041;-69
2022/04/23 13:39:39;;;;;;;16.50;8.77;;;;;;;;;;5037108;28;20052;-69
2022/04/23 13:42:05;;;;;;;17.15;8.38;;;;;;;;;;5036171;28;20044;-68
2022/04/23 13:44:31;;;;;;;15.10;7.80;;;;;;;;;;5044637;28;20049;-68
2022/04/23 13:46:56;;;;;;;14.90;7.70;;;;;;;;;;5037224;28;20041;-69
2022/04/23 13:49:24;;;;;;;15.98;8.20;;;;;;;;;;5043934;28;20095;-69
2022/04/23 13:51:50;;;;;;;15.25;7.78;;;;;;;;;;5036100;28;20116;-69
2022/04/23 13:54:16;;;;;;;14.25;7.43;;;;;;;;;;5036967;28;20448;-68
2022/04/23 13:56:42;;;;;;;14.52;8.27;;;;;;;;;;5036782;28;20033;-69
2022/04/23 13:59:10;;;;;;;14.90;8.63;;;;;;;;;;5039739;28;20041;-69
2022/04/23 14:01:37;;;;;;;14.77;7.40;;;;;;;;;;5030187;28;20507;-68
2022/04/23 14:12:15;;;;;;;19.70;7.85;;;;;;;;;;5035920;28;20288;-69
2022/04/23 14:14:40;;;;;;;19.02;7.70;;;;;;;;;;5041157;28;20088;-69
2022/04/23 14:17:06;;;;;;;17.83;8.13;;;;;;;;;;5036392;28;20065;-68
2022/04/23 14:19:32;;;;;;;18.63;8.77;;;;;;;;;;5034610;28;20033;-69
2022/04/23 14:21:58;;;;;;;15.98;8.75;;;;;;;;;;5039073;28;20112;-68
2022/04/23 14:24:24;;;;;;;14.38;8.88;;;;;;;;;;5037052;28;20041;-69
2022/04/23 14:26:49;;;;;;;16.40;8.88;;;;;;;;;;5044640;28;20086;-69
2022/04/23 14:29:15;;;;;;;18.73;8.57;;;;;;;;;;5036476;28;20037;-68
2022/04/23 14:31:40;;;;;;;13.20;7.50;;;;;;;;;;5037933;28;20042;-69
2022/04/23 14:34:05;;;;;;;23.02;9.35;;;;;;;;;;5037099;28;20038;-69
2022/04/23 14:36:32;;;;;;;17.98;8.02;;;;;;;;;;5046375;28;20400;-69
2022/04/23 14:38:58;;;;;;;15.23;8.32;;;;;;;;;;5041230;28;20041;-69
2022/04/23 14:41:23;;;;;;;16.00;7.53;;;;;;;;;;5038408;28;20034;-69
2022/04/23 14:43:50;;;;;;;15.45;7.03;;;;;;;;;;5037186;28;20090;-68
2022/04/23 14:46:16;;;;;;;18.10;8.65;;;;;;;;;;5035958;28;20507;-68
2022/04/23 14:48:43;;;;;;;18.17;8.88;;;;;;;;;;5034572;28;20033;-68
2022/04/23 14:53:53;;;;;;;16.58;8.70;;;;;;;;;;5025998;28;20040;-68
2022/04/23 14:56:20;;;;;;;13.68;6.88;;;;;;;;;;5036489;28;20045;-69
2022/04/23 14:58:46;;;;;;;12.93;6.97;;;;;;;;;;5034425;28;20510;-68
2022/04/23 15:01:12;;;;;;;12.30;7.55;;;;;;;;;;5043753;28;20048;-69
2022/04/23 15:03:37;;;;;;;17.85;7.03;;;;;;;;;;5035355;28;20037;-68
2022/04/23 15:06:04;;;;;;;11.68;5.57;;;;;;;;;;5034493;28;20037;-68
2022/04/23 15:08:29;;;;;;;14.57;7.82;;;;;;;;;;5036242;28;20037;-69
2022/04/23 15:10:54;;;;;;;16.83;8.68;;;;;;;;;;5035416;28;20480;-68
2022/04/23 15:13:20;;;;;;;14.10;7.82;;;;;;;;;;5034221;28;20389;-68
2022/04/23 15:15:48;;;;;;;13.98;7.88;;;;;;;;;;5037780;28;20465;-68
2022/04/23 15:18:14;;;;;;;13.75;7.68;;;;;;;;;;5035214;28;20040;-69
2022/04/23 15:20:41;;;;;;;20.60;8.35;;;;;;;;;;5035058;28;20493;-68
2022/04/23 15:23:07;;;;;;;14.85;7.78;;;;;;;;;;5035617;28;20128;-68